Time;durP1;ratioP1;P1;durP2;ratioP2;P2;SDS_P1;SDS_P2;PMS_P1;PMS_P2;Temp;Humidity;BMP_temperature;BMP_pressure;BME280_temperature;BME280_humidity;BME280_pressure;Samples;Min_cycle;Max_cycle;Signal;HPM_P1;HPM_P2
2020/12/01 00:01:29;;;;;;;27.03;13.17;;;;;;;;;;5074067;28;20065;-80
2020/12/01 00:03:55;;;;;;;24.17;12.73;;;;;;;;;;5074356;28;20035;-80
2020/12/01 00:06:20;;;;;;;26.60;13.37;;;;;;;;;;5074126;28;20536;-80
2020/12/01 00:08:45;;;;;;;25.60;13.40;;;;;;;;;;5075254;28;20016;-80
2020/12/01 00:11:12;;;;;;;28.80;14.43;;;;;;;;;;5075554;28;20016;-80
2020/12/01 00:13:37;;;;;;;27.40;12.73;;;;;;;;;;5074046;28;20017;-80
2020/12/01 00:16:02;;;;;;;25.10;13.57;;;;;;;;;;5074207;28;20017;-80
2020/12/01 00:18:27;;;;;;;24.97;12.27;;;;;;;;;;5075337;28;20009;-80
2020/12/01 00:20:53;;;;;;;27.67;12.40;;;;;;;;;;5075092;28;20030;-80
2020/12/01 00:23:18;;;;;;;26.50;12.47;;;;;;;;;;5075295;28;20479;-80
2020/12/01 00:25:44;;;;;;;25.23;12.63;;;;;;;;;;5073706;28;20024;-80
2020/12/01 00:28:09;;;;;;;23.47;12.03;;;;;;;;;;5073511;28;20021;-80
2020/12/01 00:30:35;;;;;;;29.23;15.53;;;;;;;;;;5080954;28;20020;-80
2020/12/01 00:33:00;;;;;;;28.80;14.53;;;;;;;;;;5073774;28;20081;-80
2020/12/01 00:35:27;;;;;;;28.10;15.13;;;;;;;;;;5074667;28;20016;-80
2020/12/01 00:37:53;;;;;;;29.33;15.07;;;;;;;;;;5073735;28;20025;-80
2020/12/01 00:40:18;;;;;;;31.57;14.57;;;;;;;;;;5073460;28;20159;-80
2020/12/01 00:42:44;;;;;;;27.83;11.93;;;;;;;;;;5073685;28;20020;-80
2020/12/01 00:45:09;;;;;;;26.70;11.63;;;;;;;;;;5073627;28;20029;-80
2020/12/01 00:47:34;;;;;;;24.40;10.90;;;;;;;;;;5074499;28;20009;-80
2020/12/01 00:50:00;;;;;;;22.50;9.30;;;;;;;;;;5073489;28;20020;-80
2020/12/01 00:52:25;;;;;;;23.33;7.70;;;;;;;;;;5073209;28;20028;-80
2020/12/01 00:54:50;;;;;;;16.30;6.73;;;;;;;;;;5073490;28;20040;-80
2020/12/01 00:57:16;;;;;;;16.80;5.87;;;;;;;;;;5074256;28;20104;-80
2020/12/01 00:59:41;;;;;;;15.57;5.77;;;;;;;;;;5073936;28;20063;-80
2020/12/01 01:02:06;;;;;;;11.83;4.23;;;;;;;;;;5073127;28;20099;-80
2020/12/01 01:04:32;;;;;;;15.00;4.10;;;;;;;;;;5074646;28;20019;-80
2020/12/01 01:06:57;;;;;;;15.63;3.90;;;;;;;;;;5073007;28;20009;-80
2020/12/01 01:09:22;;;;;;;12.70;3.90;;;;;;;;;;5074415;28;20017;-80
2020/12/01 01:11:47;;;;;;;13.03;2.87;;;;;;;;;;5074024;28;20021;-80
2020/12/01 01:14:12;;;;;;;9.07;2.00;;;;;;;;;;5073038;28;20016;-80
2020/12/01 01:16:38;;;;;;;15.17;2.10;;;;;;;;;;5072692;28;20023;-80
2020/12/01 01:19:05;;;;;;;17.50;2.00;;;;;;;;;;5072945;28;20579;-80
2020/12/01 01:21:30;;;;;;;17.27;2.27;;;;;;;;;;5076235;28;20460;-80
2020/12/01 01:23:55;;;;;;;24.40;3.17;;;;;;;;;;5074256;28;20023;-80
2020/12/01 01:26:21;;;;;;;17.43;2.73;;;;;;;;;;5072908;28;20086;-80
2020/12/01 01:28:46;;;;;;;19.10;1.70;;;;;;;;;;5072898;28;20099;-80
2020/12/01 01:31:11;;;;;;;18.83;1.90;;;;;;;;;;5080055;28;20020;-80
2020/12/01 01:33:36;;;;;;;17.77;1.83;;;;;;;;;;5072789;28;20043;-80
2020/12/01 01:36:01;;;;;;;18.37;1.70;;;;;;;;;;5072536;28;20020;-80
2020/12/01 01:38:27;;;;;;;17.00;1.97;;;;;;;;;;5072658;28;21017;-80
2020/12/01 01:40:56;;;;;;;14.93;1.70;;;;;;;;;;5072107;28;20069;-80
2020/12/01 01:43:21;;;;;;;14.80;1.57;;;;;;;;;;5073873;28;20472;-80
2020/12/01 01:45:47;;;;;;;17.57;2.43;;;;;;;;;;5065507;28;20021;-80
2020/12/01 01:48:24;;;;;;;14.87;1.50;;;;;;;;;;5072605;28;20460;-80
2020/12/01 01:50:55;;;;;;;21.30;2.33;;;;;;;;;;5073308;28;20024;-80
2020/12/01 01:53:21;;;;;;;13.53;2.00;;;;;;;;;;5073303;28;20036;-80
2020/12/01 01:55:46;;;;;;;14.93;1.20;;;;;;;;;;5072027;28;20020;-80
2020/12/01 01:58:11;;;;;;;14.40;1.30;;;;;;;;;;5072230;28;20024;-80
2020/12/01 02:00:56;;;;;;;14.90;1.60;;;;;;;;;;5106084;28;20052;-80
2020/12/01 02:03:44;;;;;;;17.43;1.90;;;;;;;;;;5071780;28;20036;-80
2020/12/01 02:06:32;;;;;;;14.07;1.37;;;;;;;;;;5056885;28;20477;-79
2020/12/01 02:09:08;;;;;;;17.73;1.20;;;;;;;;;;5059830;28;20032;-80
2020/12/01 02:11:35;;;;;;;14.33;1.20;;;;;;;;;;5071819;28;20020;-79
2020/12/01 02:14:03;;;;;;;11.20;1.30;;;;;;;;;;5071773;28;20020;-80
2020/12/01 02:16:29;;;;;;;16.87;1.47;;;;;;;;;;5075673;28;20414;-80
2020/12/01 02:18:54;;;;;;;10.67;1.20;;;;;;;;;;5072591;28;20021;-80
2020/12/01 02:21:27;;;;;;;19.50;2.70;;;;;;;;;;5071079;28;20048;-80
2020/12/01 02:23:52;;;;;;;14.87;1.40;;;;;;;;;;5072742;28;20024;-80
2020/12/01 02:26:18;;;;;;;7.50;0.80;;;;;;;;;;5062548;28;20024;-80
2020/12/01 02:28:43;;;;;;;14.40;1.13;;;;;;;;;;5067468;28;20384;-80
2020/12/01 02:31:08;;;;;;;11.10;1.33;;;;;;;;;;5071479;28;20017;-80
2020/12/01 02:33:33;;;;;;;13.37;1.63;;;;;;;;;;5071297;28;20031;-80
2020/12/01 02:35:58;;;;;;;11.27;1.20;;;;;;;;;;5071405;28;20017;-80
2020/12/01 02:38:24;;;;;;;14.50;1.23;;;;;;;;;;5071575;28;20365;-80
2020/12/01 02:40:49;;;;;;;10.87;1.23;;;;;;;;;;5072463;28;20020;-80
2020/12/01 02:43:14;;;;;;;14.37;1.47;;;;;;;;;;5072679;28;20058;-80
2020/12/01 02:45:39;;;;;;;12.20;1.50;;;;;;;;;;5071264;28;20021;-80
2020/12/01 02:48:05;;;;;;;15.60;1.33;;;;;;;;;;5071631;28;20151;-80
2020/12/01 02:50:30;;;;;;;21.07;1.30;;;;;;;;;;5072699;28;20016;-80
2020/12/01 02:52:55;;;;;;;10.97;1.30;;;;;;;;;;5071238;28;20375;-79
2020/12/01 02:55:20;;;;;;;11.90;1.17;;;;;;;;;;5071228;28;20376;-80
2020/12/01 02:57:45;;;;;;;11.97;1.13;;;;;;;;;;5057268;28;20013;-80
2020/12/01 03:00:11;;;;;;;10.07;1.40;;;;;;;;;;5071301;28;20070;-80
2020/12/01 03:02:36;;;;;;;12.27;1.43;;;;;;;;;;5070958;28;20051;-80
2020/12/01 03:05:01;;;;;;;20.73;1.80;;;;;;;;;;5070954;28;20020;-80
2020/12/01 03:07:26;;;;;;;21.13;1.80;;;;;;;;;;5071102;28;20017;-80
2020/12/01 03:09:51;;;;;;;21.90;2.17;;;;;;;;;;5072280;28;20525;-80
2020/12/01 03:12:17;;;;;;;15.47;1.53;;;;;;;;;;5071248;28;20024;-80
2020/12/01 03:14:42;;;;;;;17.67;1.77;;;;;;;;;;5072974;28;20143;-80
2020/12/01 03:17:07;;;;;;;16.50;1.63;;;;;;;;;;5069335;28;20456;-80
2020/12/01 03:19:32;;;;;;;14.53;2.10;;;;;;;;;;5069240;28;20055;-80
2020/12/01 03:21:57;;;;;;;21.73;2.60;;;;;;;;;;5066650;28;20025;-80
2020/12/01 03:24:22;;;;;;;14.03;1.37;;;;;;;;;;5072427;28;20017;-80
2020/12/01 03:26:48;;;;;;;22.70;1.83;;;;;;;;;;5072523;28;20021;-80
2020/12/01 03:29:13;;;;;;;16.40;1.70;;;;;;;;;;5073061;28;20032;-80
2020/12/01 03:31:38;;;;;;;24.53;2.50;;;;;;;;;;5073512;28;20075;-80
2020/12/01 03:34:03;;;;;;;14.50;1.60;;;;;;;;;;5072462;28;20052;-80
2020/12/01 03:36:28;;;;;;;16.13;2.07;;;;;;;;;;5072537;28;20019;-79
2020/12/01 03:38:54;;;;;;;17.93;2.20;;;;;;;;;;5072184;28;20808;-80
2020/12/01 03:41:19;;;;;;;11.23;1.50;;;;;;;;;;5073177;28;20026;-80
2020/12/01 03:43:44;;;;;;;20.30;2.07;;;;;;;;;;5074044;28;20019;-80
2020/12/01 03:46:10;;;;;;;14.00;2.17;;;;;;;;;;5080076;28;20476;-80
2020/12/01 03:48:35;;;;;;;17.93;2.20;;;;;;;;;;5074596;28;20015;-80
2020/12/01 03:51:00;;;;;;;18.17;1.80;;;;;;;;;;5074298;28;20027;-80
2020/12/01 03:53:25;;;;;;;13.00;1.87;;;;;;;;;;5074671;28;20047;-80
2020/12/01 03:55:51;;;;;;;17.37;1.80;;;;;;;;;;5074443;28;20442;-80
2020/12/01 03:58:16;;;;;;;20.40;2.23;;;;;;;;;;5074043;28;20051;-80
2020/12/01 04:00:42;;;;;;;10.23;1.37;;;;;;;;;;5080514;28;20028;-80
2020/12/01 04:03:07;;;;;;;13.57;1.43;;;;;;;;;;5077817;28;20120;-79
2020/12/01 04:05:32;;;;;;;13.77;2.27;;;;;;;;;;5075486;28;20096;-79
2020/12/01 04:07:57;;;;;;;13.20;1.40;;;;;;;;;;5074245;28;20062;-79
2020/12/01 04:10:24;;;;;;;19.67;1.53;;;;;;;;;;5074012;28;20071;-80
2020/12/01 04:12:49;;;;;;;15.60;1.50;;;;;;;;;;5074209;28;20029;-80
2020/12/01 04:15:15;;;;;;;12.13;1.60;;;;;;;;;;5073727;28;20020;-79
2020/12/01 04:17:41;;;;;;;11.67;1.73;;;;;;;;;;5075204;28;20085;-80
2020/12/01 04:20:06;;;;;;;10.03;2.10;;;;;;;;;;5074711;28;20020;-80
2020/12/01 04:22:32;;;;;;;19.93;2.47;;;;;;;;;;5074933;28;20055;-80
2020/12/01 04:24:57;;;;;;;20.33;1.60;;;;;;;;;;5074127;28;20425;-80
2020/12/01 04:27:22;;;;;;;15.97;2.17;;;;;;;;;;5073764;28;20020;-80
2020/12/01 04:29:47;;;;;;;13.47;1.40;;;;;;;;;;5075066;28;20025;-80
2020/12/01 04:32:12;;;;;;;15.87;2.17;;;;;;;;;;5074203;28;20418;-80
2020/12/01 04:34:38;;;;;;;18.43;1.70;;;;;;;;;;5073733;28;20021;-80
2020/12/01 04:37:04;;;;;;;17.37;1.80;;;;;;;;;;5074226;28;20029;-80
2020/12/01 04:39:29;;;;;;;24.77;2.63;;;;;;;;;;5073722;28;20047;-80
2020/12/01 04:41:54;;;;;;;17.23;2.00;;;;;;;;;;5080590;28;20752;-80
2020/12/01 04:44:29;;;;;;;21.67;2.30;;;;;;;;;;5075890;28;20024;-80
2020/12/01 04:46:55;;;;;;;11.73;1.67;;;;;;;;;;5082933;28;20024;-80
2020/12/01 04:49:35;;;;;;;19.73;2.03;;;;;;;;;;5073127;28;20025;-80
2020/12/01 04:52:00;;;;;;;13.30;2.00;;;;;;;;;;5073373;28;20021;-80
2020/12/01 04:54:44;;;;;;;23.37;2.83;;;;;;;;;;5074566;28;20017;-80
2020/12/01 04:57:36;;;;;;;19.90;2.17;;;;;;;;;;5072999;28;20078;-79
2020/12/01 05:00:13;;;;;;;17.47;1.73;;;;;;;;;;5064822;28;20036;-80
2020/12/01 05:02:59;;;;;;;13.53;1.97;;;;;;;;;;5074326;28;20805;-80
2020/12/01 05:05:32;;;;;;;16.23;2.00;;;;;;;;;;5073259;28;20009;-80
2020/12/01 05:08:22;;;;;;;13.57;1.40;;;;;;;;;;5072996;28;20013;-80
2020/12/01 05:10:49;;;;;;;16.23;1.47;;;;;;;;;;5073307;28;20075;-80
2020/12/01 05:13:18;;;;;;;15.93;1.90;;;;;;;;;;5072829;28;20013;-80
2020/12/01 05:15:45;;;;;;;15.87;2.00;;;;;;;;;;5072665;28;20422;-80
2020/12/01 05:18:10;;;;;;;13.73;2.00;;;;;;;;;;5072510;28;20016;-80
2020/12/01 05:20:42;;;;;;;16.33;2.80;;;;;;;;;;5072835;28;20017;-80
2020/12/01 05:23:07;;;;;;;14.30;2.30;;;;;;;;;;5072730;28;20466;-80
2020/12/01 05:25:33;;;;;;;15.13;1.87;;;;;;;;;;5072908;28;20091;-80
2020/12/01 05:28:03;;;;;;;11.53;1.90;;;;;;;;;;5072851;28;20024;-80
2020/12/01 05:30:28;;;;;;;15.77;2.03;;;;;;;;;;5071759;28;20039;-80
2020/12/01 05:32:53;;;;;;;13.43;1.87;;;;;;;;;;5070562;28;20381;-80
2020/12/01 05:35:23;;;;;;;18.12;1.90;;;;;;;;;;5070187;28;20024;-80
2020/12/01 05:37:52;;;;;;;19.67;1.73;;;;;;;;;;5070397;28;20020;-80
2020/12/01 05:40:17;;;;;;;21.83;2.10;;;;;;;;;;5071038;28;20012;-80
2020/12/01 05:42:43;;;;;;;10.80;1.60;;;;;;;;;;5069944;28;20361;-80
2020/12/01 05:45:16;;;;;;;17.13;2.73;;;;;;;;;;5070012;28;20012;-80
2020/12/01 05:47:41;;;;;;;;;;;;;;;;;;5070459;28;20487;-80
2020/12/01 05:50:11;;;;;;;13.23;1.95;;;;;;;;;;5069928;28;19904;-80
2020/12/01 05:52:42;;;;;;;15.97;3.33;;;;;;;;;;5071257;28;20395;-80
2020/12/01 05:55:15;;;;;;;22.53;2.47;;;;;;;;;;5070020;28;20118;-80
2020/12/01 05:57:41;;;;;;;22.43;2.10;;;;;;;;;;5069389;28;20029;-80
2020/12/01 06:00:17;;;;;;;15.70;3.07;;;;;;;;;;5069502;28;20384;-80
2020/12/01 06:02:48;;;;;;;18.67;2.87;;;;;;;;;;5077832;28;20051;-80
2020/12/01 06:05:16;;;;;;;17.67;3.03;;;;;;;;;;5073332;28;20483;-80
2020/12/01 06:07:45;;;;;;;8.30;1.83;;;;;;;;;;5072040;28;20021;-80
2020/12/01 06:10:22;;;;;;;9.80;2.80;;;;;;;;;;5065791;28;20021;-80
2020/12/01 06:12:54;;;;;;;14.53;2.20;;;;;;;;;;5071789;28;20020;-80
2020/12/01 06:15:20;;;;;;;11.87;1.70;;;;;;;;;;5072081;28;20020;-80
2020/12/01 06:17:50;;;;;;;8.30;1.37;;;;;;;;;;5072084;28;20040;-80
2020/12/01 06:20:15;;;;;;;10.97;1.70;;;;;;;;;;5071331;28;20107;-80
2020/12/01 06:22:50;;;;;;;6.53;1.63;;;;;;;;;;5071457;28;20107;-80
2020/12/01 06:25:21;;;;;;;13.97;2.20;;;;;;;;;;5072684;28;20017;-81
2020/12/01 06:27:46;;;;;;;6.47;1.77;;;;;;;;;;5075364;28;20490;-80
2020/12/01 06:30:34;;;;;;;5.73;1.43;;;;;;;;;;5071252;28;20103;-81
2020/12/01 06:33:08;;;;;;;7.17;1.80;;;;;;;;;;5074060;28;20021;-81
2020/12/01 06:35:43;;;;;;;9.00;2.10;;;;;;;;;;5068964;28;20024;-80
2020/12/01 06:38:10;;;;;;;11.00;2.63;;;;;;;;;;5072661;28;20016;-80
2020/12/01 06:40:43;;;;;;;9.60;2.57;;;;;;;;;;5069374;28;20024;-80
2020/12/01 06:43:08;;;;;;;8.98;2.80;;;;;;;;;;5060134;28;20107;-80
2020/12/01 06:45:41;;;;;;;9.60;2.40;;;;;;;;;;5071105;28;20048;-80
2020/12/01 06:48:27;;;;;;;7.03;1.93;;;;;;;;;;5071530;28;20372;-80
2020/12/01 06:50:54;;;;;;;8.47;2.47;;;;;;;;;;5067324;28;20082;-80
2020/12/01 06:53:24;;;;;;;8.23;2.53;;;;;;;;;;5079513;28;20074;-81
2020/12/01 06:55:54;;;;;;;9.67;2.50;;;;;;;;;;5068960;28;20021;-80
2020/12/01 06:58:25;;;;;;;8.67;2.20;;;;;;;;;;5069471;28;20020;-81
2020/12/01 07:01:01;;;;;;;6.30;2.20;;;;;;;;;;5068630;28;20048;-81
2020/12/01 07:03:26;;;;;;;4.30;1.80;;;;;;;;;;5067206;28;20432;-81
2020/12/01 07:05:52;;;;;;;6.97;2.33;;;;;;;;;;5068485;28;20043;-80
2020/12/01 07:08:26;;;;;;;6.53;2.30;;;;;;;;;;5068116;28;20058;-80
2020/12/01 07:11:20;;;;;;;6.73;2.20;;;;;;;;;;5069947;28;20111;-80
2020/12/01 07:13:50;;;;;;;10.50;2.57;;;;;;;;;;5052943;28;20055;-80
2020/12/01 07:16:24;;;;;;;7.73;2.40;;;;;;;;;;5070880;28;20016;-80
2020/12/01 07:18:52;;;;;;;8.80;2.57;;;;;;;;;;5058801;28;20480;-80
2020/12/01 07:21:17;;;;;;;5.47;2.27;;;;;;;;;;5071018;28;20375;-80
2020/12/01 07:24:01;;;;;;;10.40;2.60;;;;;;;;;;5072025;28;20021;-81
2020/12/01 07:26:32;;;;;;;15.33;2.70;;;;;;;;;;5076729;28;20016;-80
2020/12/01 07:29:36;;;;;;;9.73;2.60;;;;;;;;;;5058406;28;20023;-80
2020/12/01 07:32:21;;;;;;;4.23;1.90;;;;;;;;;;5045403;28;20032;-80
2020/12/01 07:34:47;;;;;;;11.33;2.93;;;;;;;;;;5033284;28;20464;-80
2020/12/01 07:37:28;;;;;;;14.43;2.70;;;;;;;;;;5065168;28;20036;-80
2020/12/01 07:39:54;;;;;;;10.70;2.87;;;;;;;;;;5070666;28;20025;-80
2020/12/01 07:42:21;;;;;;;9.83;2.83;;;;;;;;;;5067393;28;20784;-80
2020/12/01 07:44:46;;;;;;;8.13;2.90;;;;;;;;;;5069624;28;20383;-81
2020/12/01 07:47:14;;;;;;;14.77;3.60;;;;;;;;;;5070363;28;20028;-81
2020/12/01 07:49:40;;;;;;;15.10;3.80;;;;;;;;;;5070297;28;20074;-80
2020/12/01 07:52:14;;;;;;;18.93;4.30;;;;;;;;;;5070487;28;20025;-80
2020/12/01 07:54:41;;;;;;;9.53;3.13;;;;;;;;;;5068364;28;20029;-80
2020/12/01 07:57:16;;;;;;;23.77;3.70;;;;;;;;;;5070836;28;20020;-81
2020/12/01 07:59:45;;;;;;;19.87;4.07;;;;;;;;;;5070762;28;20033;-80
2020/12/01 08:02:12;;;;;;;19.30;3.77;;;;;;;;;;5070544;28;20044;-80
2020/12/01 08:04:37;;;;;;;18.27;3.40;;;;;;;;;;5071148;28;20028;-80
2020/12/01 08:07:03;;;;;;;13.97;3.27;;;;;;;;;;5082076;28;20357;-80
2020/12/01 08:09:29;;;;;;;16.00;2.70;;;;;;;;;;5075882;28;20056;-80
2020/12/01 08:11:58;;;;;;;15.30;2.00;;;;;;;;;;5074098;28;20024;-81
2020/12/01 08:14:23;;;;;;;21.93;2.57;;;;;;;;;;5067662;28;20043;-81
2020/12/01 08:17:02;;;;;;;14.43;2.50;;;;;;;;;;5073636;28;20032;-81
2020/12/01 08:19:29;;;;;;;20.33;3.23;;;;;;;;;;5081071;28;20016;-80
2020/12/01 08:21:54;;;;;;;11.13;2.10;;;;;;;;;;5079270;28;20021;-81
2020/12/01 08:24:23;;;;;;;15.70;2.33;;;;;;;;;;5078173;28;20044;-80
2020/12/01 08:26:58;;;;;;;19.10;3.53;;;;;;;;;;5076940;28;20016;-80
2020/12/01 08:29:25;;;;;;;15.87;3.20;;;;;;;;;;5074200;28;20039;-80
2020/12/01 08:31:57;;;;;;;14.90;2.80;;;;;;;;;;5074180;28;20387;-80
2020/12/01 08:34:33;;;;;;;15.97;3.00;;;;;;;;;;5060081;28;20020;-80
2020/12/01 08:37:04;;;;;;;20.00;3.50;;;;;;;;;;5073507;28;20103;-80
2020/12/01 08:39:43;;;;;;;17.20;2.90;;;;;;;;;;5073393;28;20024;-80
2020/12/01 08:42:12;;;;;;;17.43;3.20;;;;;;;;;;5073544;28;20028;-80
2020/12/01 08:44:56;;;;;;;19.93;3.63;;;;;;;;;;5073628;28;20423;-80
2020/12/01 08:47:22;;;;;;;18.40;3.17;;;;;;;;;;5086372;28;20398;-80
2020/12/01 08:49:49;;;;;;;18.93;2.80;;;;;;;;;;5073265;28;20024;-80
2020/12/01 08:52:41;;;;;;;14.10;2.30;;;;;;;;;;5073618;28;20048;-80
2020/12/01 08:55:06;;;;;;;;;;;;;;;;;;5072041;28;20033;-81
2020/12/01 08:57:37;;;;;;;15.70;2.80;;;;;;;;;;5073509;28;19908;-81
2020/12/01 09:00:09;;;;;;;16.23;2.80;;;;;;;;;;5074536;28;20273;-80
2020/12/01 09:02:52;;;;;;;16.17;3.07;;;;;;;;;;5074105;28;20035;-80
2020/12/01 09:05:29;;;;;;;20.47;2.57;;;;;;;;;;5074665;28;20021;-80
2020/12/01 09:08:05;;;;;;;24.13;3.00;;;;;;;;;;5074444;28;20036;-80
2020/12/01 09:10:33;;;;;;;22.97;2.93;;;;;;;;;;5073010;28;20460;-80
2020/12/01 09:13:28;;;;;;;20.27;2.40;;;;;;;;;;5072843;28;20024;-80
2020/12/01 09:16:16;;;;;;;18.77;2.13;;;;;;;;;;5080000;28;20041;-80
2020/12/01 09:21:53;;;;;;;22.00;3.33;;;;;;;;;;5031768;28;20067;-80
2020/12/01 09:24:20;;;;;;;16.37;2.53;;;;;;;;;;5068529;28;20055;-81
2020/12/01 09:26:45;;;;;;;24.07;3.43;;;;;;;;;;5074984;28;20012;-81
2020/12/01 09:29:11;;;;;;;20.47;3.37;;;;;;;;;;5072461;28;20024;-81
2020/12/01 09:31:38;;;;;;;21.07;3.53;;;;;;;;;;5083230;28;20068;-82
2020/12/01 09:34:06;;;;;;;24.87;3.67;;;;;;;;;;5076296;28;20143;-82
2020/12/01 09:36:31;;;;;;;21.83;2.80;;;;;;;;;;5082397;28;20017;-82
2020/12/01 09:38:56;;;;;;;19.60;3.27;;;;;;;;;;5066270;28;20467;-82
2020/12/01 09:41:23;;;;;;;23.27;3.30;;;;;;;;;;5072040;28;20371;-82
2020/12/01 09:44:04;;;;;;;14.63;2.30;;;;;;;;;;5072125;28;20017;-82
2020/12/01 09:46:37;;;;;;;13.93;2.63;;;;;;;;;;5069939;28;20476;-82
2020/12/01 09:49:03;;;;;;;16.30;2.53;;;;;;;;;;5078628;28;20374;-81
2020/12/01 09:51:29;;;;;;;14.73;2.83;;;;;;;;;;5079352;28;20099;-81
2020/12/01 09:56:39;;;;;;;18.93;2.93;;;;;;;;;;5060683;28;20044;-82
2020/12/01 10:12:53;;;;;;;23.67;3.07;;;;;;;;;;5079000;28;20055;-81
2020/12/01 10:18:28;;;;;;;17.50;3.43;;;;;;;;;;5072435;28;20035;-81
2020/12/01 10:32:30;;;;;;;22.50;3.23;;;;;;;;;;5056966;28;20086;-81
2020/12/01 10:37:33;;;;;;;26.33;3.83;;;;;;;;;;5074673;28;20142;-81
2020/12/01 10:39:58;;;;;;;26.70;3.37;;;;;;;;;;5072475;28;20103;-81
2020/12/01 10:42:23;;;;;;;31.13;3.70;;;;;;;;;;5071379;28;20684;-81
2020/12/01 10:44:49;;;;;;;23.03;3.33;;;;;;;;;;5084241;28;20103;-81
2020/12/01 10:47:14;;;;;;;26.17;3.90;;;;;;;;;;5072423;28;20023;-82
2020/12/01 10:49:39;;;;;;;24.53;3.67;;;;;;;;;;5071686;28;20365;-81
2020/12/01 10:52:04;;;;;;;31.13;2.93;;;;;;;;;;5076251;28;20042;-81
2020/12/01 10:54:30;;;;;;;22.73;2.63;;;;;;;;;;5073093;28;20020;-81
2020/12/01 10:56:56;;;;;;;31.98;3.83;;;;;;;;;;5071432;28;20052;-81
2020/12/01 10:59:22;;;;;;;25.20;3.10;;;;;;;;;;5071122;28;20514;-81
2020/12/01 11:01:47;;;;;;;25.67;3.37;;;;;;;;;;5076144;28;20429;-81
2020/12/01 11:04:12;;;;;;;31.83;3.83;;;;;;;;;;5063380;28;20013;-81
2020/12/01 11:06:38;;;;;;;27.83;3.63;;;;;;;;;;5066825;28;20017;-81
2020/12/01 11:09:04;;;;;;;37.67;4.03;;;;;;;;;;5062996;28;20020;-81
2020/12/01 11:11:29;;;;;;;31.80;3.07;;;;;;;;;;5072985;28;20107;-81
2020/12/01 11:13:54;;;;;;;34.10;4.63;;;;;;;;;;5080979;28;20119;-81
2020/12/01 11:16:19;;;;;;;32.33;3.60;;;;;;;;;;5070708;28;20023;-82
2020/12/01 11:18:45;;;;;;;27.27;2.78;;;;;;;;;;5071245;28;20062;-81
2020/12/01 11:21:10;;;;;;;22.90;3.00;;;;;;;;;;5071116;28;20025;-81
2020/12/01 11:23:35;;;;;;;14.80;1.77;;;;;;;;;;5073028;28;20051;-81
2020/12/01 11:26:00;;;;;;;32.80;3.20;;;;;;;;;;5079679;28;20078;-81
2020/12/01 11:28:26;;;;;;;45.03;6.57;;;;;;;;;;5084834;28;20031;-81
2020/12/01 11:30:52;;;;;;;54.77;13.40;;;;;;;;;;5070535;28;20028;-81
2020/12/01 11:33:17;;;;;;;60.60;20.37;;;;;;;;;;5075546;28;20050;-81
2020/12/01 11:35:42;;;;;;;18.80;2.73;;;;;;;;;;5074120;28;20017;-81
2020/12/01 11:38:07;;;;;;;26.50;4.20;;;;;;;;;;5081186;28;20103;-81
2020/12/01 11:40:33;;;;;;;40.47;6.60;;;;;;;;;;5082053;28;20023;-81
2020/12/01 11:42:58;;;;;;;61.50;17.83;;;;;;;;;;5085105;28;20021;-81
2020/12/01 11:45:23;;;;;;;85.27;24.30;;;;;;;;;;5074538;28;20016;-81
2020/12/01 11:47:48;;;;;;;120.90;43.83;;;;;;;;;;5077259;28;20013;-81
2020/12/01 11:50:13;;;;;;;41.40;11.53;;;;;;;;;;5074130;28;20016;-81
2020/12/01 11:52:39;;;;;;;25.67;4.13;;;;;;;;;;5075778;28;20456;-81
2020/12/01 11:55:05;;;;;;;25.60;3.53;;;;;;;;;;5082617;28;20014;-81
2020/12/01 11:57:30;;;;;;;18.17;2.17;;;;;;;;;;5080617;28;20024;-81
2020/12/01 11:59:56;;;;;;;34.90;3.63;;;;;;;;;;5073718;28;20029;-81
2020/12/01 12:02:21;;;;;;;28.40;3.70;;;;;;;;;;5074346;28;20415;-81
2020/12/01 12:04:46;;;;;;;27.20;2.80;;;;;;;;;;5078969;28;20031;-81
2020/12/01 12:07:11;;;;;;;27.33;4.47;;;;;;;;;;5083540;28;20016;-81
2020/12/01 12:09:37;;;;;;;25.60;3.10;;;;;;;;;;5075363;28;20552;-81
2020/12/01 12:12:02;;;;;;;32.50;3.90;;;;;;;;;;5082833;28;20578;-81
2020/12/01 12:14:27;;;;;;;22.35;2.78;;;;;;;;;;5073068;28;20054;-81
2020/12/01 12:16:52;;;;;;;30.77;2.77;;;;;;;;;;5075002;28;20139;-81
2020/12/01 12:19:17;;;;;;;23.33;2.37;;;;;;;;;;5074830;28;20028;-81
2020/12/01 12:21:42;;;;;;;24.07;2.77;;;;;;;;;;5073713;28;20029;-81
2020/12/01 12:24:08;;;;;;;23.70;3.30;;;;;;;;;;5072482;28;20785;-81
2020/12/01 12:26:33;;;;;;;18.55;2.08;;;;;;;;;;5075266;28;20107;-81
2020/12/01 12:28:58;;;;;;;31.60;5.20;;;;;;;;;;5062893;28;20032;-81
2020/12/01 12:31:23;;;;;;;34.20;4.10;;;;;;;;;;5073290;28;20584;-81
2020/12/01 12:33:49;;;;;;;27.17;3.47;;;;;;;;;;5078822;28;20032;-81
2020/12/01 12:36:14;;;;;;;32.70;3.30;;;;;;;;;;5074654;28;20017;-81
2020/12/01 12:38:40;;;;;;;33.30;5.65;;;;;;;;;;5074794;28;20036;-81
2020/12/01 12:41:05;;;;;;;26.77;2.95;;;;;;;;;;5073278;28;20021;-80
2020/12/01 12:43:31;;;;;;;27.55;3.67;;;;;;;;;;5073663;28;20074;-81
2020/12/01 12:45:56;;;;;;;22.13;2.33;;;;;;;;;;5066434;28;20025;-81
2020/12/01 12:48:22;;;;;;;23.70;3.00;;;;;;;;;;5063853;28;20039;-81
2020/12/01 12:50:47;;;;;;;26.00;2.65;;;;;;;;;;5078264;28;20032;-81
2020/12/01 12:53:12;;;;;;;22.27;2.55;;;;;;;;;;5073016;28;20052;-81
2020/12/01 12:55:38;;;;;;;23.88;2.65;;;;;;;;;;5074807;28;20031;-81
2020/12/01 12:58:03;;;;;;;30.50;2.80;;;;;;;;;;5074630;28;20021;-81
2020/12/01 13:00:29;;;;;;;22.80;2.53;;;;;;;;;;5109392;27;20480;-81
2020/12/01 13:02:54;;;;;;;25.42;3.65;;;;;;;;;;5087991;28;20020;-81
2020/12/01 13:05:20;;;;;;;23.87;2.37;;;;;;;;;;5072935;28;20143;-81
2020/12/01 13:07:45;;;;;;;32.63;2.65;;;;;;;;;;5075024;28;20020;-81
2020/12/01 13:10:10;;;;;;;17.08;2.45;;;;;;;;;;5065219;28;20031;-81
2020/12/01 13:12:36;;;;;;;31.65;3.38;;;;;;;;;;5080285;28;20020;-81
2020/12/01 13:15:01;;;;;;;23.02;1.88;;;;;;;;;;5078271;28;20479;-81
2020/12/01 13:17:26;;;;;;;18.37;2.13;;;;;;;;;;5074275;28;20035;-81
2020/12/01 13:19:51;;;;;;;29.67;2.30;;;;;;;;;;5087722;28;20160;-81
2020/12/01 13:22:16;;;;;;;28.90;3.03;;;;;;;;;;5088567;28;20024;-81
2020/12/01 13:24:42;;;;;;;25.27;3.55;;;;;;;;;;5076867;28;20063;-81
2020/12/01 13:27:07;;;;;;;25.17;2.90;;;;;;;;;;5084474;28;20444;-81
2020/12/01 13:29:32;;;;;;;21.40;2.60;;;;;;;;;;5074718;28;20116;-81
2020/12/01 13:31:58;;;;;;;21.57;2.70;;;;;;;;;;5074823;28;20013;-81
2020/12/01 13:34:23;;;;;;;22.83;2.67;;;;;;;;;;5083755;28;20353;-81
2020/12/01 13:36:48;;;;;;;25.53;3.30;;;;;;;;;;5072843;28;20028;-81
2020/12/01 13:39:14;;;;;;;19.20;2.47;;;;;;;;;;5081882;28;20024;-82
2020/12/01 13:41:39;;;;;;;35.33;3.43;;;;;;;;;;5081616;28;20072;-81
2020/12/01 13:44:04;;;;;;;23.60;1.83;;;;;;;;;;5083327;28;20023;-81
2020/12/01 13:46:29;;;;;;;28.00;2.70;;;;;;;;;;5083451;28;20069;-81
2020/12/01 13:48:55;;;;;;;34.83;3.23;;;;;;;;;;5071417;28;20035;-81
2020/12/01 13:51:20;;;;;;;23.10;2.60;;;;;;;;;;5068267;28;20020;-81
2020/12/01 13:53:45;;;;;;;28.92;2.40;;;;;;;;;;5074608;28;20024;-81
2020/12/01 13:56:10;;;;;;;33.83;3.00;;;;;;;;;;5072015;28;20418;-81
2020/12/01 13:58:36;;;;;;;25.83;2.25;;;;;;;;;;5073111;28;20097;-81
2020/12/01 14:01:01;;;;;;;34.75;3.15;;;;;;;;;;5080624;28;20021;-81
2020/12/01 14:03:26;;;;;;;29.85;2.53;;;;;;;;;;5073753;28;20005;-81
2020/12/01 14:05:51;;;;;;;24.45;2.60;;;;;;;;;;5072403;28;20070;-81
2020/12/01 14:08:16;;;;;;;19.80;2.67;;;;;;;;;;5074219;28;20020;-81
2020/12/01 14:10:42;;;;;;;30.37;2.43;;;;;;;;;;5073506;28;20034;-81
2020/12/01 14:13:09;;;;;;;26.07;2.77;;;;;;;;;;5073718;28;20016;-81
2020/12/01 14:15:34;;;;;;;37.63;4.60;;;;;;;;;;5079115;28;20020;-81
2020/12/01 14:17:59;;;;;;;21.97;2.43;;;;;;;;;;5083815;28;20024;-81
2020/12/01 14:20:24;;;;;;;33.83;3.47;;;;;;;;;;5088606;28;20082;-81
2020/12/01 14:22:50;;;;;;;24.20;2.40;;;;;;;;;;5079817;28;20023;-81
2020/12/01 14:25:16;;;;;;;33.13;3.80;;;;;;;;;;5072014;28;20112;-81
2020/12/01 14:27:41;;;;;;;24.70;2.67;;;;;;;;;;5079908;28;20447;-81
2020/12/01 14:30:08;;;;;;;25.03;2.57;;;;;;;;;;5068140;28;20043;-81
2020/12/01 14:32:33;;;;;;;27.93;2.87;;;;;;;;;;5060142;28;20476;-81
2020/12/01 14:34:59;;;;;;;30.70;2.83;;;;;;;;;;5072851;28;20027;-81
2020/12/01 14:37:24;;;;;;;21.10;2.23;;;;;;;;;;5071195;28;20771;-81
2020/12/01 14:39:50;;;;;;;26.73;2.20;;;;;;;;;;5072351;28;20135;-81
2020/12/01 14:42:16;;;;;;;24.20;2.80;;;;;;;;;;5085175;28;20016;-81
2020/12/01 14:44:41;;;;;;;24.97;2.80;;;;;;;;;;5071486;28;20028;-81
2020/12/01 14:47:13;;;;;;;29.47;2.47;;;;;;;;;;5075501;28;20017;-81
2020/12/01 14:49:53;;;;;;;19.23;2.30;;;;;;;;;;5072388;28;20066;-81
2020/12/01 14:52:18;;;;;;;32.10;2.90;;;;;;;;;;5059882;28;20623;-81
2020/12/01 14:54:56;;;;;;;19.77;2.77;;;;;;;;;;5072455;28;20051;-81
2020/12/01 14:57:21;;;;;;;28.30;2.97;;;;;;;;;;5071325;28;20024;-81
2020/12/01 14:59:54;;;;;;;20.73;3.10;;;;;;;;;;5067646;28;20029;-81
2020/12/01 15:02:43;;;;;;;27.97;3.00;;;;;;;;;;5074827;28;20466;-81
2020/12/01 15:05:08;;;;;;;24.57;4.00;;;;;;;;;;5087042;28;20020;-81
2020/12/01 15:07:48;;;;;;;29.15;4.13;;;;;;;;;;5071266;28;20024;-81
2020/12/01 15:10:16;;;;;;;26.17;3.20;;;;;;;;;;5072373;28;20553;-81
2020/12/01 15:12:47;;;;;;;31.08;3.88;;;;;;;;;;5085767;28;20043;-81